sensor_id;sensor_type;location;lat;lon;timestamp;P1;durP1;ratioP1;P2;durP2;ratioP2
34204;SDS011;20471;49.680;20.074;2024-01-06T00:00:03;123.10;;;60.70;;
34204;SDS011;20471;49.680;20.074;2024-01-06T00:02:30;150.10;;;69.50;;
34204;SDS011;20471;49.680;20.074;2024-01-06T00:04:56;111.90;;;56.40;;
34204;SDS011;20471;49.680;20.074;2024-01-06T00:07:23;113.40;;;56.60;;
34204;SDS011;20471;49.680;20.074;2024-01-06T00:09:49;100.00;;;52.50;;
34204;SDS011;20471;49.680;20.074;2024-01-06T00:15:23;104.90;;;54.10;;
34204;SDS011;20471;49.680;20.074;2024-01-06T00:17:50;89.30;;;48.40;;
34204;SDS011;20471;49.680;20.074;2024-01-06T00:20:16;83.80;;;45.90;;
34204;SDS011;20471;49.680;20.074;2024-01-06T00:22:42;84.70;;;46.20;;
34204;SDS011;20471;49.680;20.074;2024-01-06T00:25:10;80.50;;;46.20;;
34204;SDS011;20471;49.680;20.074;2024-01-06T00:27:36;88.40;;;48.60;;
34204;SDS011;20471;49.680;20.074;2024-01-06T00:30:03;93.70;;;52.00;;
34204;SDS011;20471;49.680;20.074;2024-01-06T00:32:30;90.50;;;50.10;;
34204;SDS011;20471;49.680;20.074;2024-01-06T00:34:56;85.60;;;47.70;;
34204;SDS011;20471;49.680;20.074;2024-01-06T00:37:26;78.40;;;44.50;;
34204;SDS011;20471;49.680;20.074;2024-01-06T00:39:55;78.40;;;44.00;;
34204;SDS011;20471;49.680;20.074;2024-01-06T00:42:21;96.60;;;49.80;;
34204;SDS011;20471;49.680;20.074;2024-01-06T00:44:48;111.10;;;54.40;;
34204;SDS011;20471;49.680;20.074;2024-01-06T00:47:14;97.70;;;50.90;;
34204;SDS011;20471;49.680;20.074;2024-01-06T00:49:40;87.60;;;46.10;;
34204;SDS011;20471;49.680;20.074;2024-01-06T00:52:07;87.50;;;48.50;;
34204;SDS011;20471;49.680;20.074;2024-01-06T00:54:33;90.90;;;48.10;;
34204;SDS011;20471;49.680;20.074;2024-01-06T00:57:00;99.30;;;51.40;;
34204;SDS011;20471;49.680;20.074;2024-01-06T00:59:26;91.90;;;49.60;;
34204;SDS011;20471;49.680;20.074;2024-01-06T01:01:53;94.00;;;50.40;;
34204;SDS011;20471;49.680;20.074;2024-01-06T01:04:20;93.00;;;48.30;;
34204;SDS011;20471;49.680;20.074;2024-01-06T01:06:46;92.20;;;48.80;;
34204;SDS011;20471;49.680;20.074;2024-01-06T01:09:13;78.90;;;44.70;;
34204;SDS011;20471;49.680;20.074;2024-01-06T01:11:40;75.10;;;41.80;;
34204;SDS011;20471;49.680;20.074;2024-01-06T01:14:07;82.70;;;44.40;;
34204;SDS011;20471;49.680;20.074;2024-01-06T01:16:34;91.10;;;48.00;;
34204;SDS011;20471;49.680;20.074;2024-01-06T01:19:00;82.40;;;44.10;;
34204;SDS011;20471;49.680;20.074;2024-01-06T01:21:27;82.70;;;44.90;;
34204;SDS011;20471;49.680;20.074;2024-01-06T01:23:54;95.50;;;49.90;;
34204;SDS011;20471;49.680;20.074;2024-01-06T01:26:20;94.40;;;49.60;;
34204;SDS011;20471;49.680;20.074;2024-01-06T01:28:47;88.00;;;47.00;;
34204;SDS011;20471;49.680;20.074;2024-01-06T01:31:13;82.60;;;47.40;;
34204;SDS011;20471;49.680;20.074;2024-01-06T01:33:39;82.80;;;44.70;;
34204;SDS011;20471;49.680;20.074;2024-01-06T01:36:06;77.90;;;44.60;;
34204;SDS011;20471;49.680;20.074;2024-01-06T01:38:32;76.70;;;42.40;;
34204;SDS011;20471;49.680;20.074;2024-01-06T01:40:59;73.40;;;41.30;;
34204;SDS011;20471;49.680;20.074;2024-01-06T01:43:25;69.60;;;39.60;;
34204;SDS011;20471;49.680;20.074;2024-01-06T01:45:54;65.20;;;36.20;;
34204;SDS011;20471;49.680;20.074;2024-01-06T01:48:22;64.10;;;35.10;;
34204;SDS011;20471;49.680;20.074;2024-01-06T01:50:49;59.40;;;35.20;;
34204;SDS011;20471;49.680;20.074;2024-01-06T01:53:17;62.90;;;36.30;;
34204;SDS011;20471;49.680;20.074;2024-01-06T01:55:44;60.90;;;36.60;;
34204;SDS011;20471;49.680;20.074;2024-01-06T01:58:12;64.30;;;37.10;;
34204;SDS011;20471;49.680;20.074;2024-01-06T02:00:40;57.60;;;35.00;;
34204;SDS011;20471;49.680;20.074;2024-01-06T02:03:06;60.50;;;37.10;;
34204;SDS011;20471;49.680;20.074;2024-01-06T02:05:35;54.10;;;33.70;;
34204;SDS011;20471;49.680;20.074;2024-01-06T02:08:01;59.80;;;33.70;;
34204;SDS011;20471;49.680;20.074;2024-01-06T02:10:28;60.40;;;32.70;;
34204;SDS011;20471;49.680;20.074;2024-01-06T02:12:55;58.50;;;34.40;;
34204;SDS011;20471;49.680;20.074;2024-01-06T02:15:21;50.90;;;29.50;;
34204;SDS011;20471;49.680;20.074;2024-01-06T02:17:48;58.10;;;33.00;;
34204;SDS011;20471;49.680;20.074;2024-01-06T02:20:14;58.80;;;35.70;;
34204;SDS011;20471;49.680;20.074;2024-01-06T02:22:46;58.30;;;34.70;;
34204;SDS011;20471;49.680;20.074;2024-01-06T02:25:12;57.60;;;32.90;;
34204;SDS011;20471;49.680;20.074;2024-01-06T02:27:39;53.80;;;33.90;;
34204;SDS011;20471;49.680;20.074;2024-01-06T02:30:06;51.00;;;31.00;;
34204;SDS011;20471;49.680;20.074;2024-01-06T02:32:33;52.60;;;30.10;;
34204;SDS011;20471;49.680;20.074;2024-01-06T02:35:00;50.90;;;29.70;;
34204;SDS011;20471;49.680;20.074;2024-01-06T02:37:27;47.80;;;30.10;;
34204;SDS011;20471;49.680;20.074;2024-01-06T02:39:53;53.90;;;32.20;;
34204;SDS011;20471;49.680;20.074;2024-01-06T02:42:19;45.90;;;30.60;;
34204;SDS011;20471;49.680;20.074;2024-01-06T02:44:46;37.50;;;24.90;;
34204;SDS011;20471;49.680;20.074;2024-01-06T02:47:12;40.80;;;24.80;;
34204;SDS011;20471;49.680;20.074;2024-01-06T02:49:39;36.10;;;24.20;;
34204;SDS011;20471;49.680;20.074;2024-01-06T02:52:05;41.00;;;25.40;;
34204;SDS011;20471;49.680;20.074;2024-01-06T02:54:31;38.80;;;25.90;;
34204;SDS011;20471;49.680;20.074;2024-01-06T02:56:58;43.30;;;27.70;;
34204;SDS011;20471;49.680;20.074;2024-01-06T02:59:24;45.40;;;28.40;;
34204;SDS011;20471;49.680;20.074;2024-01-06T03:01:51;41.30;;;25.50;;
34204;SDS011;20471;49.680;20.074;2024-01-06T03:04:17;38.50;;;23.10;;
34204;SDS011;20471;49.680;20.074;2024-01-06T03:06:44;37.60;;;24.50;;
34204;SDS011;20471;49.680;20.074;2024-01-06T03:09:11;38.00;;;24.80;;
34204;SDS011;20471;49.680;20.074;2024-01-06T03:11:38;32.90;;;21.70;;
34204;SDS011;20471;49.680;20.074;2024-01-06T03:14:04;31.80;;;21.30;;
34204;SDS011;20471;49.680;20.074;2024-01-06T03:16:30;31.20;;;19.70;;
34204;SDS011;20471;49.680;20.074;2024-01-06T03:18:57;35.30;;;19.90;;
34204;SDS011;20471;49.680;20.074;2024-01-06T03:21:23;33.70;;;20.70;;
34204;SDS011;20471;49.680;20.074;2024-01-06T03:23:52;31.40;;;20.60;;
34204;SDS011;20471;49.680;20.074;2024-01-06T03:26:21;35.10;;;22.30;;
34204;SDS011;20471;49.680;20.074;2024-01-06T03:28:50;49.10;;;23.60;;
34204;SDS011;20471;49.680;20.074;2024-01-06T03:31:16;47.70;;;24.20;;
34204;SDS011;20471;49.680;20.074;2024-01-06T03:33:43;39.60;;;21.40;;
34204;SDS011;20471;49.680;20.074;2024-01-06T03:36:12;39.80;;;20.90;;
34204;SDS011;20471;49.680;20.074;2024-01-06T03:38:39;36.50;;;21.50;;
34204;SDS011;20471;49.680;20.074;2024-01-06T03:41:05;39.60;;;21.30;;
34204;SDS011;20471;49.680;20.074;2024-01-06T03:43:31;41.30;;;20.80;;
34204;SDS011;20471;49.680;20.074;2024-01-06T03:45:58;43.80;;;21.50;;
34204;SDS011;20471;49.680;20.074;2024-01-06T03:48:26;36.90;;;20.90;;
34204;SDS011;20471;49.680;20.074;2024-01-06T03:50:52;39.40;;;21.10;;
34204;SDS011;20471;49.680;20.074;2024-01-06T03:53:18;33.50;;;20.80;;
34204;SDS011;20471;49.680;20.074;2024-01-06T03:55:45;33.20;;;20.40;;
34204;SDS011;20471;49.680;20.074;2024-01-06T03:58:11;41.10;;;21.60;;
34204;SDS011;20471;49.680;20.074;2024-01-06T04:00:38;34.20;;;20.70;;
34204;SDS011;20471;49.680;20.074;2024-01-06T04:03:04;37.00;;;21.00;;
34204;SDS011;20471;49.680;20.074;2024-01-06T04:05:32;38.20;;;22.10;;
34204;SDS011;20471;49.680;20.074;2024-01-06T04:07:59;36.40;;;21.30;;
34204;SDS011;20471;49.680;20.074;2024-01-06T04:10:25;34.10;;;20.10;;
34204;SDS011;20471;49.680;20.074;2024-01-06T04:12:52;36.80;;;21.80;;
34204;SDS011;20471;49.680;20.074;2024-01-06T04:15:18;36.70;;;20.70;;
34204;SDS011;20471;49.680;20.074;2024-01-06T04:17:46;35.70;;;21.10;;
34204;SDS011;20471;49.680;20.074;2024-01-06T04:20:14;35.60;;;21.40;;
34204;SDS011;20471;49.680;20.074;2024-01-06T04:22:40;34.90;;;20.60;;
34204;SDS011;20471;49.680;20.074;2024-01-06T04:25:07;34.30;;;19.80;;
34204;SDS011;20471;49.680;20.074;2024-01-06T04:27:35;33.10;;;19.80;;
34204;SDS011;20471;49.680;20.074;2024-01-06T04:30:02;35.80;;;20.00;;
34204;SDS011;20471;49.680;20.074;2024-01-06T04:32:31;36.10;;;19.60;;
34204;SDS011;20471;49.680;20.074;2024-01-06T04:34:58;30.10;;;18.40;;
34204;SDS011;20471;49.680;20.074;2024-01-06T04:37:25;31.70;;;18.30;;
34204;SDS011;20471;49.680;20.074;2024-01-06T04:39:51;30.40;;;18.50;;
34204;SDS011;20471;49.680;20.074;2024-01-06T04:42:17;28.70;;;17.70;;
34204;SDS011;20471;49.680;20.074;2024-01-06T04:44:45;29.80;;;16.70;;
34204;SDS011;20471;49.680;20.074;2024-01-06T04:47:11;28.40;;;18.40;;
34204;SDS011;20471;49.680;20.074;2024-01-06T04:49:38;31.80;;;18.30;;
34204;SDS011;20471;49.680;20.074;2024-01-06T04:52:08;29.90;;;17.60;;
34204;SDS011;20471;49.680;20.074;2024-01-06T04:54:34;31.20;;;18.30;;
34204;SDS011;20471;49.680;20.074;2024-01-06T04:57:01;27.50;;;18.20;;
34204;SDS011;20471;49.680;20.074;2024-01-06T04:59:27;27.40;;;18.40;;
34204;SDS011;20471;49.680;20.074;2024-01-06T05:01:54;28.60;;;17.60;;
34204;SDS011;20471;49.680;20.074;2024-01-06T05:04:21;28.10;;;16.70;;
34204;SDS011;20471;49.680;20.074;2024-01-06T05:06:47;27.40;;;16.40;;
34204;SDS011;20471;49.680;20.074;2024-01-06T05:09:15;26.10;;;16.90;;
34204;SDS011;20471;49.680;20.074;2024-01-06T05:11:43;25.90;;;16.90;;
34204;SDS011;20471;49.680;20.074;2024-01-06T05:14:10;25.80;;;16.90;;
34204;SDS011;20471;49.680;20.074;2024-01-06T05:16:37;31.60;;;17.00;;
34204;SDS011;20471;49.680;20.074;2024-01-06T05:19:03;31.40;;;18.50;;
34204;SDS011;20471;49.680;20.074;2024-01-06T05:21:30;32.50;;;20.00;;
34204;SDS011;20471;49.680;20.074;2024-01-06T05:23:56;31.80;;;19.00;;
34204;SDS011;20471;49.680;20.074;2024-01-06T05:26:23;35.50;;;20.30;;
34204;SDS011;20471;49.680;20.074;2024-01-06T05:28:49;30.30;;;18.60;;
34204;SDS011;20471;49.680;20.074;2024-01-06T05:31:16;32.20;;;18.90;;
34204;SDS011;20471;49.680;20.074;2024-01-06T05:33:42;33.20;;;18.20;;
34204;SDS011;20471;49.680;20.074;2024-01-06T05:36:08;27.40;;;17.30;;
34204;SDS011;20471;49.680;20.074;2024-01-06T05:38:44;32.10;;;20.80;;
34204;SDS011;20471;49.680;20.074;2024-01-06T05:41:11;31.70;;;21.20;;
34204;SDS011;20471;49.680;20.074;2024-01-06T05:43:37;34.00;;;22.10;;
34204;SDS011;20471;49.680;20.074;2024-01-06T05:46:04;39.20;;;24.90;;
34204;SDS011;20471;49.680;20.074;2024-01-06T05:48:31;41.40;;;26.70;;
34204;SDS011;20471;49.680;20.074;2024-01-06T05:51:17;42.30;;;25.20;;
34204;SDS011;20471;49.680;20.074;2024-01-06T05:53:44;41.20;;;26.50;;
34204;SDS011;20471;49.680;20.074;2024-01-06T05:56:10;42.00;;;26.40;;
34204;SDS011;20471;49.680;20.074;2024-01-06T05:58:37;41.90;;;28.70;;
34204;SDS011;20471;49.680;20.074;2024-01-06T06:01:04;40.80;;;27.70;;
34204;SDS011;20471;49.680;20.074;2024-01-06T06:03:30;41.70;;;28.90;;
34204;SDS011;20471;49.680;20.074;2024-01-06T06:05:58;39.70;;;27.40;;
34204;SDS011;20471;49.680;20.074;2024-01-06T06:08:24;43.10;;;28.00;;
34204;SDS011;20471;49.680;20.074;2024-01-06T06:10:50;42.50;;;27.90;;
34204;SDS011;20471;49.680;20.074;2024-01-06T06:13:30;38.30;;;27.00;;
34204;SDS011;20471;49.680;20.074;2024-01-06T06:16:06;43.30;;;27.00;;
34204;SDS011;20471;49.680;20.074;2024-01-06T06:18:46;45.10;;;29.60;;
34204;SDS011;20471;49.680;20.074;2024-01-06T06:21:12;44.60;;;27.30;;
34204;SDS011;20471;49.680;20.074;2024-01-06T06:23:38;44.70;;;28.40;;
34204;SDS011;20471;49.680;20.074;2024-01-06T06:26:08;42.90;;;29.30;;
34204;SDS011;20471;49.680;20.074;2024-01-06T06:28:35;47.90;;;29.10;;
34204;SDS011;20471;49.680;20.074;2024-01-06T06:31:02;45.20;;;30.30;;
34204;SDS011;20471;49.680;20.074;2024-01-06T06:33:29;53.10;;;34.20;;
34204;SDS011;20471;49.680;20.074;2024-01-06T06:36:16;44.50;;;30.90;;
34204;SDS011;20471;49.680;20.074;2024-01-06T06:41:49;48.50;;;32.10;;
34204;SDS011;20471;49.680;20.074;2024-01-06T06:44:18;45.10;;;31.70;;
34204;SDS011;20471;49.680;20.074;2024-01-06T06:46:46;44.30;;;30.00;;
34204;SDS011;20471;49.680;20.074;2024-01-06T06:49:12;49.80;;;30.70;;
34204;SDS011;20471;49.680;20.074;2024-01-06T06:51:38;45.80;;;30.60;;
34204;SDS011;20471;49.680;20.074;2024-01-06T06:54:12;47.10;;;32.70;;
34204;SDS011;20471;49.680;20.074;2024-01-06T06:56:40;43.60;;;28.90;;
34204;SDS011;20471;49.680;20.074;2024-01-06T06:59:07;52.50;;;31.20;;
34204;SDS011;20471;49.680;20.074;2024-01-06T07:01:33;62.10;;;39.10;;
34204;SDS011;20471;49.680;20.074;2024-01-06T07:04:01;62.70;;;40.30;;
34204;SDS011;20471;49.680;20.074;2024-01-06T07:06:28;64.20;;;42.30;;
34204;SDS011;20471;49.680;20.074;2024-01-06T07:08:55;68.30;;;42.20;;
34204;SDS011;20471;49.680;20.074;2024-01-06T07:11:25;70.30;;;43.60;;
34204;SDS011;20471;49.680;20.074;2024-01-06T07:14:12;66.00;;;43.10;;
34204;SDS011;20471;49.680;20.074;2024-01-06T07:16:39;68.30;;;42.30;;
34204;SDS011;20471;49.680;20.074;2024-01-06T07:19:05;63.90;;;41.20;;
34204;SDS011;20471;49.680;20.074;2024-01-06T07:21:31;68.30;;;42.40;;
34204;SDS011;20471;49.680;20.074;2024-01-06T07:24:00;65.40;;;41.50;;
34204;SDS011;20471;49.680;20.074;2024-01-06T07:26:27;66.50;;;42.10;;
34204;SDS011;20471;49.680;20.074;2024-01-06T07:28:54;66.10;;;40.90;;
34204;SDS011;20471;49.680;20.074;2024-01-06T07:31:20;63.40;;;41.30;;
34204;SDS011;20471;49.680;20.074;2024-01-06T07:33:47;68.10;;;42.10;;
34204;SDS011;20471;49.680;20.074;2024-01-06T07:36:34;80.50;;;44.80;;
34204;SDS011;20471;49.680;20.074;2024-01-06T07:39:00;65.60;;;41.40;;
34204;SDS011;20471;49.680;20.074;2024-01-06T07:41:26;61.40;;;39.90;;
34204;SDS011;20471;49.680;20.074;2024-01-06T07:43:53;67.90;;;43.90;;
34204;SDS011;20471;49.680;20.074;2024-01-06T07:46:20;73.20;;;43.80;;
34204;SDS011;20471;49.680;20.074;2024-01-06T07:48:46;88.50;;;51.40;;
34204;SDS011;20471;49.680;20.074;2024-01-06T07:51:12;84.70;;;50.60;;
34204;SDS011;20471;49.680;20.074;2024-01-06T07:53:39;85.90;;;52.90;;
34204;SDS011;20471;49.680;20.074;2024-01-06T07:56:06;110.30;;;64.50;;
34204;SDS011;20471;49.680;20.074;2024-01-06T07:58:32;105.30;;;60.30;;
34204;SDS011;20471;49.680;20.074;2024-01-06T08:01:01;109.50;;;62.30;;
34204;SDS011;20471;49.680;20.074;2024-01-06T08:03:28;105.70;;;58.90;;
34204;SDS011;20471;49.680;20.074;2024-01-06T08:05:55;112.10;;;64.90;;
34204;SDS011;20471;49.680;20.074;2024-01-06T08:08:25;111.50;;;63.90;;
34204;SDS011;20471;49.680;20.074;2024-01-06T08:10:52;115.50;;;64.10;;
34204;SDS011;20471;49.680;20.074;2024-01-06T08:13:19;98.90;;;57.80;;
34204;SDS011;20471;49.680;20.074;2024-01-06T08:15:45;98.60;;;57.70;;
34204;SDS011;20471;49.680;20.074;2024-01-06T08:18:11;93.70;;;60.70;;
34204;SDS011;20471;49.680;20.074;2024-01-06T08:20:38;87.30;;;57.70;;
34204;SDS011;20471;49.680;20.074;2024-01-06T08:23:04;97.80;;;64.60;;
34204;SDS011;20471;49.680;20.074;2024-01-06T08:25:33;93.80;;;65.30;;
34204;SDS011;20471;49.680;20.074;2024-01-06T08:28:02;88.40;;;62.10;;
34204;SDS011;20471;49.680;20.074;2024-01-06T08:30:29;81.80;;;54.40;;
34204;SDS011;20471;49.680;20.074;2024-01-06T08:32:56;81.70;;;55.60;;
34204;SDS011;20471;49.680;20.074;2024-01-06T08:35:26;78.30;;;54.20;;
34204;SDS011;20471;49.680;20.074;2024-01-06T08:37:53;79.70;;;54.30;;
34204;SDS011;20471;49.680;20.074;2024-01-06T08:43:13;70.40;;;49.90;;
34204;SDS011;20471;49.680;20.074;2024-01-06T08:45:40;63.50;;;46.40;;
34204;SDS011;20471;49.680;20.074;2024-01-06T08:48:06;75.30;;;50.30;;
34204;SDS011;20471;49.680;20.074;2024-01-06T08:50:33;72.00;;;51.00;;
34204;SDS011;20471;49.680;20.074;2024-01-06T08:52:59;89.50;;;60.10;;
34204;SDS011;20471;49.680;20.074;2024-01-06T08:55:26;98.20;;;62.90;;
34204;SDS011;20471;49.680;20.074;2024-01-06T08:58:03;86.60;;;60.90;;
34204;SDS011;20471;49.680;20.074;2024-01-06T09:00:31;88.50;;;60.60;;
34204;SDS011;20471;49.680;20.074;2024-01-06T09:02:57;84.50;;;58.40;;
34204;SDS011;20471;49.680;20.074;2024-01-06T09:05:24;83.80;;;58.30;;
34204;SDS011;20471;49.680;20.074;2024-01-06T09:07:50;78.60;;;52.90;;
34204;SDS011;20471;49.680;20.074;2024-01-06T09:10:17;69.00;;;49.40;;
34204;SDS011;20471;49.680;20.074;2024-01-06T09:12:44;72.00;;;52.00;;
34204;SDS011;20471;49.680;20.074;2024-01-06T09:15:11;75.10;;;52.30;;
34204;SDS011;20471;49.680;20.074;2024-01-06T09:17:37;66.60;;;46.00;;
34204;SDS011;20471;49.680;20.074;2024-01-06T09:20:04;55.40;;;39.80;;
34204;SDS011;20471;49.680;20.074;2024-01-06T09:22:55;46.60;;;30.80;;
34204;SDS011;20471;49.680;20.074;2024-01-06T09:25:21;53.10;;;34.80;;
34204;SDS011;20471;49.680;20.074;2024-01-06T09:28:09;51.10;;;33.50;;
34204;SDS011;20471;49.680;20.074;2024-01-06T09:30:36;49.90;;;34.60;;
34204;SDS011;20471;49.680;20.074;2024-01-06T09:33:03;57.70;;;38.10;;
34204;SDS011;20471;49.680;20.074;2024-01-06T09:35:29;57.60;;;38.10;;
34204;SDS011;20471;49.680;20.074;2024-01-06T09:37:56;54.60;;;37.10;;
34204;SDS011;20471;49.680;20.074;2024-01-06T09:40:23;53.30;;;33.70;;
34204;SDS011;20471;49.680;20.074;2024-01-06T09:42:50;51.60;;;33.10;;
34204;SDS011;20471;49.680;20.074;2024-01-06T09:45:19;45.50;;;30.90;;
34204;SDS011;20471;49.680;20.074;2024-01-06T09:47:50;47.20;;;30.20;;
34204;SDS011;20471;49.680;20.074;2024-01-06T09:50:17;43.40;;;29.50;;
34204;SDS011;20471;49.680;20.074;2024-01-06T09:52:45;40.90;;;28.70;;
34204;SDS011;20471;49.680;20.074;2024-01-06T09:55:22;45.30;;;29.10;;
34204;SDS011;20471;49.680;20.074;2024-01-06T09:57:52;41.40;;;27.80;;
34204;SDS011;20471;49.680;20.074;2024-01-06T10:03:18;39.70;;;26.60;;
34204;SDS011;20471;49.680;20.074;2024-01-06T10:05:45;38.10;;;26.50;;
34204;SDS011;20471;49.680;20.074;2024-01-06T10:08:11;39.40;;;25.90;;
34204;SDS011;20471;49.680;20.074;2024-01-06T10:10:42;41.00;;;25.70;;
34204;SDS011;20471;49.680;20.074;2024-01-06T10:13:16;38.00;;;25.60;;
34204;SDS011;20471;49.680;20.074;2024-01-06T10:15:46;43.10;;;25.80;;
34204;SDS011;20471;49.680;20.074;2024-01-06T10:18:13;41.00;;;25.40;;
34204;SDS011;20471;49.680;20.074;2024-01-06T10:20:51;45.90;;;26.40;;
34204;SDS011;20471;49.680;20.074;2024-01-06T10:26:25;74.60;;;38.00;;
34204;SDS011;20471;49.680;20.074;2024-01-06T10:31:41;57.30;;;30.60;;
34204;SDS011;20471;49.680;20.074;2024-01-06T10:34:08;56.30;;;29.20;;
34204;SDS011;20471;49.680;20.074;2024-01-06T10:36:43;51.40;;;28.80;;
34204;SDS011;20471;49.680;20.074;2024-01-06T10:39:31;65.10;;;35.10;;
34204;SDS011;20471;49.680;20.074;2024-01-06T10:41:59;73.30;;;46.00;;
34204;SDS011;20471;49.680;20.074;2024-01-06T10:44:33;71.20;;;44.70;;
34204;SDS011;20471;49.680;20.074;2024-01-06T10:47:00;63.50;;;41.10;;
34204;SDS011;20471;49.680;20.074;2024-01-06T10:49:34;69.10;;;41.80;;
34204;SDS011;20471;49.680;20.074;2024-01-06T10:52:02;66.70;;;40.80;;
34204;SDS011;20471;49.680;20.074;2024-01-06T10:57:08;58.00;;;37.40;;
34204;SDS011;20471;49.680;20.074;2024-01-06T10:59:35;59.40;;;37.50;;
34204;SDS011;20471;49.680;20.074;2024-01-06T11:02:04;68.20;;;42.30;;
34204;SDS011;20471;49.680;20.074;2024-01-06T11:04:32;68.60;;;40.00;;
34204;SDS011;20471;49.680;20.074;2024-01-06T11:06:59;51.40;;;33.80;;
34204;SDS011;20471;49.680;20.074;2024-01-06T11:12:31;41.80;;;28.90;;
34204;SDS011;20471;49.680;20.074;2024-01-06T11:14:59;37.70;;;25.00;;
34204;SDS011;20471;49.680;20.074;2024-01-06T11:29:22;30.50;;;18.60;;
34204;SDS011;20471;49.680;20.074;2024-01-06T11:35:10;21.20;;;13.50;;
34204;SDS011;20471;49.680;20.074;2024-01-06T11:43:33;20.50;;;12.70;;
34204;SDS011;20471;49.680;20.074;2024-01-06T11:46:00;22.60;;;12.50;;
34204;SDS011;20471;49.680;20.074;2024-01-06T11:48:39;20.70;;;11.80;;
34204;SDS011;20471;49.680;20.074;2024-01-06T11:53:47;19.40;;;11.90;;
34204;SDS011;20471;49.680;20.074;2024-01-06T11:56:14;22.00;;;11.60;;
34204;SDS011;20471;49.680;20.074;2024-01-06T11:58:48;22.30;;;13.00;;
34204;SDS011;20471;49.680;20.074;2024-01-06T12:04:13;19.90;;;12.30;;
34204;SDS011;20471;49.680;20.074;2024-01-06T12:12:26;19.50;;;11.30;;
34204;SDS011;20471;49.680;20.074;2024-01-06T12:18:02;20.90;;;11.40;;
34204;SDS011;20471;49.680;20.074;2024-01-06T12:20:50;16.60;;;11.60;;
34204;SDS011;20471;49.680;20.074;2024-01-06T12:23:28;23.10;;;12.90;;
34204;SDS011;20471;49.680;20.074;2024-01-06T12:26:16;27.50;;;16.60;;
34204;SDS011;20471;49.680;20.074;2024-01-06T12:29:06;25.30;;;16.80;;
34204;SDS011;20471;49.680;20.074;2024-01-06T12:31:32;29.10;;;18.40;;
34204;SDS011;20471;49.680;20.074;2024-01-06T12:36:52;32.10;;;21.00;;
34204;SDS011;20471;49.680;20.074;2024-01-06T12:39:28;33.70;;;19.20;;
34204;SDS011;20471;49.680;20.074;2024-01-06T12:45:05;33.10;;;21.70;;
34204;SDS011;20471;49.680;20.074;2024-01-06T12:47:32;32.50;;;21.10;;
34204;SDS011;20471;49.680;20.074;2024-01-06T12:50:03;59.50;;;37.70;;
34204;SDS011;20471;49.680;20.074;2024-01-06T12:52:30;73.80;;;42.30;;
34204;SDS011;20471;49.680;20.074;2024-01-06T12:55:00;75.00;;;43.50;;
34204;SDS011;20471;49.680;20.074;2024-01-06T12:57:57;69.90;;;42.10;;
34204;SDS011;20471;49.680;20.074;2024-01-06T13:00:32;67.00;;;40.30;;
34204;SDS011;20471;49.680;20.074;2024-01-06T13:03:21;65.50;;;39.10;;
34204;SDS011;20471;49.680;20.074;2024-01-06T13:05:48;59.90;;;37.70;;
34204;SDS011;20471;49.680;20.074;2024-01-06T13:08:15;57.30;;;36.40;;
34204;SDS011;20471;49.680;20.074;2024-01-06T13:11:02;57.80;;;36.80;;
34204;SDS011;20471;49.680;20.074;2024-01-06T13:13:32;57.20;;;35.10;;
34204;SDS011;20471;49.680;20.074;2024-01-06T13:16:01;63.10;;;35.10;;
34204;SDS011;20471;49.680;20.074;2024-01-06T13:18:29;57.10;;;34.70;;
34204;SDS011;20471;49.680;20.074;2024-01-06T13:24:07;68.00;;;34.60;;
34204;SDS011;20471;49.680;20.074;2024-01-06T13:29:44;51.50;;;30.70;;
34204;SDS011;20471;49.680;20.074;2024-01-06T13:32:14;54.40;;;33.20;;
34204;SDS011;20471;49.680;20.074;2024-01-06T13:35:01;52.10;;;32.20;;
34204;SDS011;20471;49.680;20.074;2024-01-06T13:40:30;45.20;;;28.30;;
34204;SDS011;20471;49.680;20.074;2024-01-06T13:42:59;43.70;;;27.40;;
34204;SDS011;20471;49.680;20.074;2024-01-06T13:45:28;49.90;;;30.70;;
34204;SDS011;20471;49.680;20.074;2024-01-06T13:47:59;54.30;;;33.60;;
34204;SDS011;20471;49.680;20.074;2024-01-06T13:50:25;51.30;;;33.30;;
34204;SDS011;20471;49.680;20.074;2024-01-06T13:52:52;48.10;;;32.00;;
34204;SDS011;20471;49.680;20.074;2024-01-06T13:55:20;49.40;;;32.30;;
34204;SDS011;20471;49.680;20.074;2024-01-06T14:00:53;47.50;;;30.40;;
34204;SDS011;20471;49.680;20.074;2024-01-06T14:03:20;51.00;;;31.50;;
34204;SDS011;20471;49.680;20.074;2024-01-06T14:05:48;50.00;;;33.00;;
34204;SDS011;20471;49.680;20.074;2024-01-06T14:08:17;56.60;;;34.30;;
34204;SDS011;20471;49.680;20.074;2024-01-06T14:10:43;48.10;;;30.00;;
34204;SDS011;20471;49.680;20.074;2024-01-06T14:13:10;44.20;;;28.50;;
34204;SDS011;20471;49.680;20.074;2024-01-06T14:15:37;46.10;;;28.60;;
34204;SDS011;20471;49.680;20.074;2024-01-06T14:18:03;47.00;;;30.50;;
34204;SDS011;20471;49.680;20.074;2024-01-06T14:20:33;46.00;;;29.50;;
34204;SDS011;20471;49.680;20.074;2024-01-06T14:23:03;47.10;;;30.20;;
34204;SDS011;20471;49.680;20.074;2024-01-06T14:25:32;40.50;;;26.00;;
34204;SDS011;20471;49.680;20.074;2024-01-06T14:27:59;39.40;;;24.30;;
34204;SDS011;20471;49.680;20.074;2024-01-06T14:30:25;41.70;;;25.60;;
34204;SDS011;20471;49.680;20.074;2024-01-06T14:32:52;37.80;;;23.90;;
34204;SDS011;20471;49.680;20.074;2024-01-06T14:35:21;34.10;;;23.10;;
34204;SDS011;20471;49.680;20.074;2024-01-06T14:37:47;34.50;;;22.70;;
34204;SDS011;20471;49.680;20.074;2024-01-06T14:40:14;36.60;;;24.30;;
34204;SDS011;20471;49.680;20.074;2024-01-06T14:42:40;42.40;;;28.60;;
34204;SDS011;20471;49.680;20.074;2024-01-06T14:45:10;40.80;;;25.10;;
34204;SDS011;20471;49.680;20.074;2024-01-06T14:47:37;37.30;;;26.40;;
34204;SDS011;20471;49.680;20.074;2024-01-06T14:50:03;38.90;;;26.40;;
34204;SDS011;20471;49.680;20.074;2024-01-06T14:52:30;44.40;;;28.90;;
34204;SDS011;20471;49.680;20.074;2024-01-06T14:54:57;40.70;;;26.80;;
34204;SDS011;20471;49.680;20.074;2024-01-06T14:57:24;47.30;;;30.00;;
34204;SDS011;20471;49.680;20.074;2024-01-06T14:59:51;47.70;;;29.70;;
34204;SDS011;20471;49.680;20.074;2024-01-06T15:02:17;49.30;;;28.80;;
34204;SDS011;20471;49.680;20.074;2024-01-06T15:04:45;44.20;;;27.70;;
34204;SDS011;20471;49.680;20.074;2024-01-06T15:07:11;43.40;;;27.40;;
34204;SDS011;20471;49.680;20.074;2024-01-06T15:09:38;66.60;;;37.70;;
34204;SDS011;20471;49.680;20.074;2024-01-06T15:12:25;50.20;;;31.10;;
34204;SDS011;20471;49.680;20.074;2024-01-06T15:14:52;51.10;;;31.40;;
34204;SDS011;20471;49.680;20.074;2024-01-06T15:17:19;50.10;;;31.60;;
34204;SDS011;20471;49.680;20.074;2024-01-06T15:19:49;50.20;;;30.90;;
34204;SDS011;20471;49.680;20.074;2024-01-06T15:22:16;51.00;;;32.00;;
34204;SDS011;20471;49.680;20.074;2024-01-06T15:24:42;53.00;;;32.40;;
34204;SDS011;20471;49.680;20.074;2024-01-06T15:27:10;53.90;;;31.90;;
34204;SDS011;20471;49.680;20.074;2024-01-06T15:29:36;52.80;;;32.20;;
34204;SDS011;20471;49.680;20.074;2024-01-06T15:32:03;52.60;;;31.80;;